createdAt,value
2022-10-01T00:01:38.549Z,23.00
2022-10-01T00:04:05.471Z,24.00
2022-10-01T00:06:32.343Z,24.50
2022-10-01T00:08:59.287Z,24.00
2022-10-01T00:11:26.784Z,23.00
2022-10-01T00:13:54.628Z,24.00
2022-10-01T00:16:24.345Z,24.00
2022-10-01T00:18:51.781Z,24.00
2022-10-01T00:21:21.346Z,24.00
2022-10-01T00:23:48.889Z,24.25
2022-10-01T00:26:21.186Z,24.75
2022-10-01T00:28:53.583Z,24.00
2022-10-01T00:31:20.572Z,24.00
2022-10-01T00:33:47.374Z,23.00
2022-10-01T00:36:14.496Z,23.00
2022-10-01T00:38:41.583Z,26.00
2022-10-01T00:41:09.605Z,24.00
2022-10-01T00:43:42.810Z,24.00
2022-10-01T00:46:33.768Z,24.00
2022-10-01T00:49:05.512Z,23.00
2022-10-01T00:51:52.435Z,23.75
2022-10-01T00:54:31.857Z,24.00
2022-10-01T00:57:01.270Z,24.00
2022-10-01T00:59:29.387Z,24.00
2022-10-01T04:52:31.118Z,26.00
2022-10-01T04:54:57.888Z,25.00
2022-10-01T04:57:24.745Z,26.00
2022-10-01T04:59:51.553Z,25.00
2022-10-01T05:02:18.439Z,24.00
2022-10-01T05:04:45.280Z,24.00
2022-10-01T05:07:12.172Z,25.00
2022-10-01T05:09:39.052Z,24.50
2022-10-01T05:12:06.259Z,25.00
2022-10-01T05:14:33.143Z,25.00
2022-10-01T05:17:00.036Z,25.00
2022-10-01T05:19:28.136Z,24.75
2022-10-01T05:21:55.732Z,24.50
2022-10-01T05:24:54.508Z,27.00
2022-10-01T05:27:21.402Z,25.00
2022-10-01T05:29:48.205Z,25.00
2022-10-01T05:32:15.104Z,24.00
2022-10-01T05:34:41.946Z,25.75
2022-10-01T05:37:08.976Z,24.00
2022-10-01T05:39:35.748Z,24.00
2022-10-01T05:42:06.139Z,24.00
2022-10-01T05:44:33.622Z,25.00
2022-10-01T05:47:00.398Z,24.00
2022-10-01T05:49:27.284Z,25.00
2022-10-01T05:51:54.074Z,25.00
2022-10-01T05:54:21.544Z,25.00
2022-10-01T05:56:48.311Z,23.00
2022-10-01T05:59:15.125Z,24.00
2022-10-01T06:01:42.315Z,24.00
2022-10-01T06:04:27.774Z,24.00
2022-10-01T06:06:54.667Z,24.00
2022-10-01T06:09:21.518Z,23.00
2022-10-01T06:11:48.503Z,23.00
2022-10-01T06:14:15.948Z,23.00
2022-10-01T06:16:43.092Z,23.75
2022-10-01T06:19:10.049Z,23.00
2022-10-01T06:21:41.092Z,23.00
2022-10-01T06:24:08.039Z,24.00
2022-10-01T06:26:34.857Z,23.50
2022-10-01T06:29:01.637Z,24.00
2022-10-01T06:31:29.584Z,24.00
2022-10-01T06:33:56.498Z,23.00
2022-10-01T06:36:23.372Z,24.00
2022-10-01T06:38:50.405Z,24.75
2022-10-01T06:41:17.209Z,23.00
2022-10-01T06:43:44.020Z,23.50
2022-10-01T06:46:10.841Z,24.00
2022-10-01T06:48:37.859Z,24.00
2022-10-01T06:51:07.128Z,24.00
2022-10-01T06:53:34.055Z,24.00
2022-10-01T06:56:08.216Z,23.00
2022-10-01T06:58:35.144Z,23.00
2022-10-01T07:01:02.822Z,25.00
2022-10-01T07:03:30.463Z,23.00
2022-10-01T07:06:02.606Z,24.00
2022-10-01T07:08:29.698Z,24.00
2022-10-01T07:11:01.656Z,23.00
2022-10-01T07:13:28.497Z,23.00
2022-10-01T07:15:55.342Z,23.00
2022-10-01T07:18:22.275Z,24.00
2022-10-01T07:20:49.108Z,25.00
2022-10-01T07:23:16.647Z,24.00
2022-10-01T07:25:44.402Z,25.00
2022-10-01T07:28:14.982Z,23.00
2022-10-01T07:31:05.269Z,24.75
2022-10-01T07:33:32.912Z,23.50
2022-10-01T07:36:01.696Z,23.00
2022-10-01T07:38:30.985Z,23.00
2022-10-01T07:40:57.837Z,23.00
2022-10-01T07:43:24.943Z,23.00
2022-10-01T07:45:51.896Z,23.50
2022-10-01T07:48:18.945Z,23.00
2022-10-01T07:50:48.900Z,24.00
2022-10-01T07:53:18.616Z,24.00
2022-10-01T07:55:46.809Z,24.00
2022-10-01T07:58:13.722Z,24.00
2022-10-01T08:00:43.653Z,24.00
2022-10-01T08:03:11.033Z,24.00
2022-10-01T08:05:41.412Z,23.00
2022-10-01T08:08:08.622Z,24.00
2022-10-01T08:10:39.461Z,23.00
2022-10-01T08:13:25.497Z,25.25
2022-10-01T08:15:54.877Z,25.25
2022-10-01T08:18:29.488Z,25.00
2022-10-01T08:21:07.047Z,23.00
2022-10-01T08:23:34.447Z,24.00
2022-10-01T08:26:06.822Z,23.50
2022-10-01T08:28:36.881Z,24.25
2022-10-01T08:31:07.097Z,25.00
2022-10-01T08:33:33.946Z,24.00
2022-10-01T08:36:02.499Z,24.75
2022-10-01T08:38:29.398Z,24.00
2022-10-01T08:41:00.603Z,24.00
2022-10-01T08:43:38.892Z,23.50
2022-10-01T08:46:13.400Z,24.00
2022-10-01T08:48:56.951Z,24.00
2022-10-01T08:51:24.257Z,24.00
2022-10-01T08:53:57.741Z,24.00
2022-10-01T08:56:43.704Z,24.00
2022-10-01T08:59:40.288Z,24.00
2022-10-01T09:02:34.855Z,24.00
2022-10-01T09:05:13.871Z,24.50
2022-10-01T09:07:59.611Z,25.00
2022-10-01T09:11:00.916Z,25.25
2022-10-01T09:14:15.989Z,25.00
2022-10-01T09:17:20.418Z,25.00
2022-10-01T09:20:25.734Z,24.00
2022-10-01T09:23:01.496Z,24.00
2022-10-01T09:25:32.426Z,25.00
2022-10-01T09:28:38.678Z,24.50
2022-10-01T09:31:29.257Z,24.50
2022-10-01T09:34:19.484Z,25.00
2022-10-01T09:37:03.577Z,24.50
2022-10-01T09:39:38.761Z,26.00
2022-10-01T09:42:05.731Z,24.00
2022-10-01T09:44:34.091Z,25.00
2022-10-01T09:47:01.227Z,24.50
2022-10-01T09:49:32.581Z,25.00
2022-10-01T09:52:06.050Z,25.00
2022-10-01T09:54:41.267Z,25.00
2022-10-01T09:57:13.629Z,25.00
2022-10-01T09:59:57.174Z,25.00
2022-10-01T10:02:31.469Z,25.00
2022-10-01T10:05:07.039Z,25.00
2022-10-01T10:07:34.939Z,25.00
2022-10-01T10:10:17.000Z,25.00
2022-10-01T10:12:43.947Z,26.25
2022-10-01T10:15:17.541Z,26.00
2022-10-01T10:17:47.830Z,26.75
2022-10-01T10:20:31.374Z,26.00
2022-10-01T10:23:11.921Z,25.00
2022-10-01T10:25:39.351Z,25.00
2022-10-01T10:28:19.883Z,25.50
2022-10-01T10:30:48.134Z,26.00
2022-10-01T10:33:15.141Z,25.00
2022-10-01T10:35:43.121Z,25.50
2022-10-01T10:38:19.726Z,26.00
2022-10-01T10:40:46.754Z,26.50
2022-10-01T10:43:21.513Z,27.00
2022-10-01T10:46:26.038Z,26.25
2022-10-01T10:49:00.602Z,28.00
2022-10-01T10:51:27.582Z,28.00
2022-10-01T10:54:22.347Z,27.00
2022-10-01T10:56:55.298Z,27.00
2022-10-01T10:59:55.284Z,26.00
2022-10-01T11:02:23.815Z,26.00
2022-10-01T11:04:52.903Z,26.00
2022-10-01T11:07:53.480Z,26.50
2022-10-01T11:10:57.468Z,26.00
2022-10-01T11:13:34.005Z,26.00
2022-10-01T11:16:28.426Z,27.50
2022-10-01T11:19:35.492Z,26.00
2022-10-01T11:22:20.862Z,26.00
2022-10-01T11:24:53.631Z,27.00
2022-10-01T11:27:32.543Z,26.00
2022-10-01T11:30:11.019Z,28.00
2022-10-01T11:33:17.537Z,27.00
2022-10-01T11:36:03.159Z,27.00
2022-10-01T11:39:09.965Z,27.00
2022-10-01T11:42:06.283Z,26.00
2022-10-01T11:44:50.704Z,26.00
2022-10-01T11:47:29.001Z,26.50
2022-10-01T11:50:14.685Z,27.00
2022-10-01T11:53:05.380Z,26.00
2022-10-01T11:55:45.558Z,27.25
2022-10-01T11:58:15.212Z,27.00
2022-10-01T12:01:00.108Z,29.00
2022-10-01T12:03:35.281Z,27.00
2022-10-01T12:06:03.956Z,27.00
2022-10-01T12:08:34.978Z,26.00
2022-10-01T12:11:25.977Z,26.00
2022-10-01T12:14:01.983Z,25.00
2022-10-01T12:16:53.641Z,26.00
2022-10-01T12:19:29.095Z,26.50
2022-10-01T12:22:05.061Z,28.75
2022-10-01T12:24:40.764Z,27.00
2022-10-01T12:27:28.739Z,26.00
2022-10-01T12:30:20.773Z,27.00
2022-10-01T12:33:25.104Z,27.50
2022-10-01T12:36:11.963Z,26.00
2022-10-01T12:39:05.559Z,26.50
2022-10-01T12:42:02.765Z,26.00
2022-10-01T12:44:40.824Z,26.00
2022-10-01T12:47:22.898Z,26.00
2022-10-01T12:49:52.965Z,25.50
2022-10-01T12:52:22.899Z,26.00
2022-10-01T12:55:06.965Z,26.00
2022-10-01T12:58:03.970Z,27.00
2022-10-01T13:00:39.662Z,27.00
2022-10-01T13:03:39.313Z,26.00
2022-10-01T13:06:34.381Z,27.00
2022-10-01T13:09:50.909Z,27.00
2022-10-01T13:12:41.863Z,28.25
2022-10-01T13:15:17.272Z,28.00
2022-10-01T13:17:49.250Z,28.00
2022-10-01T13:20:44.040Z,28.75
2022-10-01T13:23:35.363Z,28.00
2022-10-01T13:26:11.125Z,27.00
2022-10-01T13:28:50.103Z,30.00
2022-10-01T13:31:18.535Z,29.00
2022-10-01T13:34:26.089Z,28.00
2022-10-01T13:36:53.047Z,26.00
2022-10-01T13:39:28.932Z,26.50
2022-10-01T13:41:58.035Z,28.75
2022-10-01T13:44:34.681Z,27.00
2022-10-01T13:47:06.704Z,26.00
2022-10-01T13:49:36.476Z,27.00
2022-10-01T13:52:04.770Z,26.00
2022-10-01T13:54:37.553Z,26.00
2022-10-01T13:57:25.711Z,26.00
2022-10-01T13:59:59.729Z,27.00
2022-10-01T14:02:36.414Z,26.00
2022-10-01T14:05:31.713Z,26.00
2022-10-01T14:08:14.296Z,26.00
2022-10-01T14:10:57.188Z,26.00
2022-10-01T14:13:26.739Z,25.25
2022-10-01T14:16:04.269Z,26.50
2022-10-01T14:18:39.106Z,27.00
2022-10-01T14:21:44.230Z,27.50
2022-10-01T14:24:45.093Z,28.00
2022-10-01T14:27:29.060Z,28.00
2022-10-01T14:30:14.528Z,27.00
2022-10-01T14:33:08.869Z,28.50
2022-10-01T14:35:41.688Z,27.00
2022-10-01T14:38:19.021Z,26.25
2022-10-01T14:40:48.723Z,26.00
2022-10-01T14:43:20.595Z,25.00
2022-10-01T14:46:14.003Z,25.00
2022-10-01T14:48:41.337Z,25.00
2022-10-01T14:51:24.082Z,25.00
2022-10-01T14:53:52.419Z,25.00
2022-10-01T14:56:20.537Z,25.00
2022-10-01T14:58:55.511Z,25.00
2022-10-01T15:01:24.081Z,25.00
2022-10-01T15:03:52.268Z,25.00
2022-10-01T15:06:27.596Z,25.00
2022-10-01T15:09:02.861Z,25.00
2022-10-01T15:11:34.391Z,25.00
2022-10-01T15:14:08.007Z,26.00
2022-10-01T15:16:36.476Z,25.00
2022-10-01T15:19:14.720Z,25.00
2022-10-01T15:21:53.435Z,25.00
2022-10-01T15:24:43.574Z,25.00
2022-10-01T15:27:12.653Z,25.50
2022-10-01T15:29:41.484Z,26.00
2022-10-01T15:32:16.900Z,26.00
2022-10-01T15:35:00.067Z,26.00
2022-10-01T15:37:33.337Z,26.50
2022-10-01T15:40:01.846Z,27.00
2022-10-01T15:42:31.805Z,26.00
2022-10-01T15:45:07.517Z,25.00
2022-10-01T15:47:36.475Z,24.50
2022-10-01T15:50:16.604Z,25.00
2022-10-01T15:52:49.682Z,25.00
2022-10-01T15:55:20.004Z,24.00
2022-10-01T15:57:48.637Z,24.50
2022-10-01T16:00:30.860Z,25.00
2022-10-01T16:03:01.075Z,25.25
2022-10-01T16:05:36.077Z,27.00
2022-10-01T16:08:29.384Z,26.00
2022-10-01T16:11:19.814Z,27.00
2022-10-01T16:13:49.353Z,28.00
2022-10-01T16:16:31.141Z,26.00
2022-10-01T16:19:23.137Z,26.00
2022-10-01T16:22:14.812Z,27.00
2022-10-01T16:24:52.327Z,27.00
2022-10-01T16:27:20.996Z,26.00
2022-10-01T16:30:02.564Z,29.00
2022-10-01T16:32:31.822Z,28.00
2022-10-01T16:35:20.509Z,29.25
2022-10-01T16:37:48.819Z,29.00
2022-10-01T16:40:21.969Z,28.00
2022-10-01T16:42:49.834Z,27.00
2022-10-01T16:45:20.008Z,27.50
2022-10-01T16:50:46.993Z,27.00
2022-10-01T16:53:17.085Z,27.25
2022-10-01T16:55:50.940Z,29.00
2022-10-01T16:58:51.328Z,29.00
2022-10-01T17:04:54.714Z,27.00
2022-10-01T17:07:31.605Z,27.25
2022-10-01T17:09:59.194Z,27.00
2022-10-01T17:12:36.925Z,27.75
2022-10-01T17:15:21.278Z,27.25
2022-10-01T17:17:53.135Z,27.00
2022-10-01T17:20:25.405Z,27.25
2022-10-01T17:22:55.740Z,27.50
2022-10-01T17:25:38.738Z,27.25
2022-10-01T17:28:12.101Z,27.75
2022-10-01T17:30:40.886Z,27.50
2022-10-01T17:33:15.177Z,26.00
2022-10-01T17:36:07.130Z,27.50
2022-10-01T17:38:35.004Z,27.00
2022-10-01T17:41:05.801Z,26.75
2022-10-01T17:43:35.274Z,26.50
2022-10-01T17:46:02.205Z,27.00
2022-10-01T17:48:29.781Z,27.00
2022-10-01T17:51:09.208Z,28.75
2022-10-01T17:53:42.565Z,27.00
2022-10-01T17:56:16.075Z,28.00
2022-10-01T17:58:45.641Z,28.00
2022-10-01T18:01:38.836Z,27.00
2022-10-01T18:04:05.996Z,27.75
2022-10-01T18:06:36.047Z,26.50
2022-10-01T18:09:11.489Z,27.00
2022-10-01T18:11:41.335Z,27.00
2022-10-01T18:14:09.238Z,27.00
2022-10-01T18:16:57.017Z,27.00
2022-10-01T18:19:52.836Z,27.00
2022-10-01T18:22:17.631Z,27.75
2022-10-01T18:24:49.773Z,27.00
2022-10-01T18:27:16.631Z,27.50
2022-10-01T18:29:43.521Z,27.00
2022-10-01T18:32:48.599Z,27.75
2022-10-01T18:35:19.260Z,27.00
2022-10-01T18:37:54.422Z,27.00
2022-10-01T18:43:28.433Z,26.75
2022-10-01T18:46:38.025Z,26.50
2022-10-01T18:49:56.427Z,26.00
2022-10-01T18:52:57.860Z,25.75
2022-10-01T18:59:35.040Z,26.00
2022-10-01T19:02:34.279Z,27.50
2022-10-01T19:08:45.206Z,25.50
2022-10-01T19:11:45.076Z,27.00
2022-10-01T19:14:32.223Z,27.00
2022-10-01T19:17:17.603Z,26.00
2022-10-01T19:19:56.794Z,26.75
2022-10-01T19:22:33.709Z,27.00
2022-10-01T19:25:42.398Z,26.25
2022-10-01T19:28:23.823Z,26.50
2022-10-01T19:30:59.556Z,26.00
2022-10-01T19:33:32.598Z,26.00
2022-10-01T19:36:00.292Z,26.00
2022-10-01T19:38:40.637Z,26.50
2022-10-01T19:41:16.319Z,27.00
2022-10-01T19:43:50.093Z,28.00
2022-10-01T19:46:26.661Z,27.00
2022-10-01T19:49:09.744Z,28.00
2022-10-01T19:51:43.636Z,27.00
2022-10-01T19:54:15.460Z,27.00
2022-10-01T19:56:44.625Z,26.00
2022-10-01T19:59:19.434Z,26.00
2022-10-01T20:02:30.551Z,26.00
2022-10-01T20:05:15.388Z,26.00
2022-10-01T20:07:54.235Z,26.00
2022-10-01T20:10:27.750Z,26.75
2022-10-01T20:12:57.514Z,26.50
2022-10-01T20:15:45.490Z,27.00
2022-10-01T20:18:56.491Z,27.00
2022-10-01T20:21:45.770Z,28.50
2022-10-01T20:24:54.609Z,27.00
2022-10-01T20:27:27.339Z,26.00
2022-10-01T20:30:05.674Z,27.00
2022-10-01T20:32:58.909Z,27.00
2022-10-01T20:35:42.030Z,27.00
2022-10-01T20:38:15.402Z,29.50
2022-10-01T20:40:58.126Z,29.00
2022-10-01T20:43:37.854Z,27.00
2022-10-01T20:46:11.983Z,28.00
2022-10-01T20:48:51.376Z,27.00
2022-10-01T20:51:32.594Z,27.00
2022-10-01T20:54:12.960Z,27.00
2022-10-01T20:57:04.063Z,28.00
2022-10-01T20:59:37.133Z,27.00
2022-10-01T21:02:28.640Z,26.00
2022-10-01T21:05:06.166Z,26.00
2022-10-01T21:07:33.127Z,27.00
2022-10-01T21:10:10.969Z,26.50
2022-10-01T21:12:41.980Z,27.00
2022-10-01T21:15:13.020Z,26.00
2022-10-01T21:18:09.762Z,27.00
2022-10-01T21:20:57.276Z,26.25
2022-10-01T21:23:50.185Z,27.50
2022-10-01T21:26:31.633Z,26.50
2022-10-01T21:29:07.604Z,29.00
2022-10-01T21:32:05.543Z,29.00
2022-10-01T21:34:41.175Z,28.00
2022-10-01T21:37:18.163Z,27.00
2022-10-01T21:40:07.162Z,27.00
2022-10-01T21:42:36.889Z,26.75
2022-10-01T21:45:37.165Z,27.00
2022-10-01T21:48:31.695Z,28.00
2022-10-01T21:51:14.971Z,26.00
2022-10-01T21:54:02.703Z,27.50
2022-10-01T21:57:04.624Z,26.75
2022-10-01T22:00:02.228Z,27.00
2022-10-01T22:02:46.873Z,26.00
2022-10-01T22:05:25.141Z,26.00
2022-10-01T22:08:10.401Z,27.00
2022-10-01T22:10:45.892Z,28.00
2022-10-01T22:13:19.174Z,28.75
2022-10-01T22:15:49.615Z,30.00
2022-10-01T22:18:28.118Z,28.00
2022-10-01T22:20:57.977Z,29.00
2022-10-01T22:23:27.070Z,28.75
2022-10-01T22:25:59.336Z,27.50
2022-10-01T22:28:39.477Z,28.50
2022-10-01T22:31:34.145Z,28.00
2022-10-01T22:34:12.304Z,28.00
2022-10-01T22:36:47.805Z,29.00
2022-10-01T22:39:23.657Z,28.00
2022-10-01T22:41:56.055Z,27.75
2022-10-01T22:44:23.857Z,27.00
2022-10-01T22:47:01.204Z,28.50
2022-10-01T22:49:33.751Z,27.50
2022-10-01T22:52:37.936Z,27.00
2022-10-01T22:55:22.745Z,27.50
2022-10-01T22:58:09.844Z,27.00
2022-10-01T23:00:49.285Z,26.00
2022-10-01T23:03:33.602Z,27.50
2022-10-01T23:06:27.616Z,27.00
2022-10-01T23:09:15.495Z,26.00
2022-10-01T23:12:03.273Z,26.00
2022-10-01T23:14:55.629Z,26.00
2022-10-01T23:17:26.441Z,26.50
2022-10-01T23:20:15.440Z,28.00
2022-10-01T23:23:19.863Z,28.00
2022-10-01T23:26:05.318Z,27.00
2022-10-01T23:29:05.676Z,26.00
2022-10-01T23:31:57.073Z,27.00
2022-10-01T23:35:05.557Z,27.00
2022-10-01T23:37:51.446Z,26.00
2022-10-01T23:40:22.481Z,26.00
2022-10-01T23:43:10.194Z,27.75
2022-10-01T23:45:48.904Z,27.00
2022-10-01T23:48:30.146Z,26.00
2022-10-01T23:51:18.407Z,28.00
2022-10-01T23:54:24.878Z,27.00
2022-10-01T23:57:04.278Z,27.50
2022-10-01T23:59:39.674Z,27.50
